createdAt,value
2023-08-23T00:00:39.341Z,21.57
2023-08-23T00:01:41.191Z,21.60
2023-08-23T00:02:43.070Z,21.58
2023-08-23T00:03:44.770Z,21.58
2023-08-23T00:04:48.970Z,21.58
2023-08-23T00:05:50.670Z,21.55
2023-08-23T00:06:52.356Z,21.52
2023-08-23T00:07:54.249Z,21.48
2023-08-23T00:08:55.929Z,21.45
2023-08-23T00:10:00.197Z,21.40
2023-08-23T00:11:01.998Z,21.37
2023-08-23T00:12:03.922Z,21.37
2023-08-23T00:13:05.588Z,21.37
2023-08-23T00:14:10.188Z,21.35
2023-08-23T00:15:11.852Z,21.37
2023-08-23T00:16:13.497Z,21.25
2023-08-23T00:17:15.282Z,21.33
2023-08-23T00:18:17.027Z,21.34
2023-08-23T00:19:18.647Z,21.24
2023-08-23T00:20:20.783Z,21.36
2023-08-23T00:21:22.625Z,21.35
2023-08-23T00:22:24.391Z,21.36
2023-08-23T00:23:31.146Z,21.35
2023-08-23T00:24:32.851Z,21.37
2023-08-23T00:25:34.541Z,21.37
2023-08-23T00:26:36.283Z,21.36
2023-08-23T00:27:38.003Z,21.38
2023-08-23T00:28:39.794Z,21.26
2023-08-23T00:29:42.504Z,21.31
2023-08-23T00:30:54.887Z,21.17
2023-08-23T00:31:56.713Z,21.23
2023-08-23T00:32:58.481Z,21.19
2023-08-23T00:34:02.390Z,21.13
2023-08-23T00:35:04.518Z,21.13
2023-08-23T00:36:06.396Z,21.08
2023-08-23T00:37:08.194Z,21.06
2023-08-23T00:38:12.039Z,20.99
2023-08-23T00:39:14.097Z,20.97
2023-08-23T00:40:20.145Z,20.94
2023-08-23T00:41:24.375Z,20.87
2023-08-23T00:42:26.135Z,20.82
2023-08-23T00:43:28.010Z,20.81
2023-08-23T00:44:29.713Z,20.80
2023-08-23T00:45:35.653Z,20.78
2023-08-23T00:46:37.519Z,20.79
2023-08-23T00:47:39.435Z,20.81
2023-08-23T00:48:46.178Z,20.81
2023-08-23T00:49:48.488Z,20.82
2023-08-23T00:50:52.649Z,20.80
2023-08-23T00:51:54.880Z,20.84
2023-08-23T00:52:57.367Z,20.82
2023-08-23T00:54:01.870Z,20.82
2023-08-23T00:55:03.829Z,20.80
2023-08-23T00:56:05.759Z,20.81
2023-08-23T00:57:08.728Z,20.81
2023-08-23T00:58:10.803Z,20.81
2023-08-23T00:59:12.629Z,20.78
2023-08-23T01:00:15.395Z,20.82
2023-08-23T01:01:17.524Z,20.83
2023-08-23T01:02:19.077Z,20.74
2023-08-23T01:03:23.971Z,20.79
2023-08-23T01:04:25.819Z,20.79
2023-08-23T01:05:43.438Z,20.76
2023-08-23T01:06:58.222Z,20.74
2023-08-23T01:08:10.494Z,20.76
2023-08-23T01:09:33.961Z,20.74
2023-08-23T01:10:47.983Z,20.70
2023-08-23T01:12:09.427Z,20.67
2023-08-23T01:13:33.114Z,20.70
2023-08-23T01:15:11.482Z,20.70
2023-08-23T01:16:17.193Z,20.72
2023-08-23T01:17:20.991Z,20.73
2023-08-23T01:18:24.840Z,20.75
2023-08-23T01:19:29.326Z,20.72
2023-08-23T01:20:32.862Z,20.73
2023-08-23T01:21:38.707Z,20.74
2023-08-23T01:22:50.161Z,20.71
2023-08-23T01:23:52.845Z,20.73
2023-08-23T01:24:54.779Z,20.72
2023-08-23T01:25:56.747Z,20.69
2023-08-23T01:27:00.752Z,20.70
2023-08-23T01:28:02.696Z,20.66
2023-08-23T01:29:05.818Z,20.67
2023-08-23T01:30:07.994Z,20.66
2023-08-23T01:31:13.036Z,20.67
2023-08-23T01:32:22.638Z,20.68
2023-08-23T01:33:34.552Z,20.67
2023-08-23T01:34:41.681Z,20.62
2023-08-23T01:35:48.963Z,20.58
2023-08-23T01:36:52.220Z,20.56
2023-08-23T01:37:55.867Z,20.55
2023-08-23T01:38:58.811Z,20.56
2023-08-23T01:40:02.836Z,20.52
2023-08-23T01:41:06.587Z,20.54
2023-08-23T01:42:09.441Z,20.54
2023-08-23T01:43:11.253Z,20.51
2023-08-23T01:44:12.986Z,20.50
2023-08-23T01:45:15.297Z,20.48
2023-08-23T01:46:17.046Z,20.44
2023-08-23T01:47:19.743Z,20.42
2023-08-23T01:48:21.568Z,20.42
2023-08-23T01:49:25.412Z,20.37
2023-08-23T01:50:27.072Z,20.36
2023-08-23T01:51:29.133Z,20.25
2023-08-23T01:52:30.869Z,20.36
2023-08-23T01:53:32.547Z,20.37
2023-08-23T01:54:34.291Z,20.28
2023-08-23T01:55:36.023Z,20.38
2023-08-23T01:56:37.751Z,20.39
2023-08-23T01:57:41.414Z,20.37
2023-08-23T01:58:43.195Z,20.38
2023-08-23T01:59:45.899Z,20.28
2023-08-23T02:00:48.679Z,20.38
2023-08-23T02:01:50.612Z,20.38
2023-08-23T02:02:54.817Z,20.38
2023-08-23T02:03:56.681Z,20.36
2023-08-23T02:04:58.260Z,20.25
2023-08-23T02:06:00.070Z,20.30
2023-08-23T02:07:01.836Z,20.29
2023-08-23T02:08:07.857Z,20.29
2023-08-23T02:09:09.494Z,20.30
2023-08-23T02:10:11.251Z,20.28
2023-08-23T02:11:15.224Z,20.20
2023-08-23T02:12:19.044Z,20.27
2023-08-23T02:13:22.931Z,20.19
2023-08-23T02:14:25.440Z,20.25
2023-08-23T02:15:29.650Z,20.23
2023-08-23T02:16:31.590Z,20.22
2023-08-23T02:17:33.272Z,20.23
2023-08-23T02:18:34.833Z,20.13
2023-08-23T02:19:36.663Z,20.18
2023-08-23T02:20:38.605Z,20.12
2023-08-23T02:21:40.208Z,20.17
2023-08-23T02:22:41.958Z,20.18
2023-08-23T02:23:43.578Z,20.08
2023-08-23T02:24:46.697Z,20.17
2023-08-23T02:25:48.459Z,20.15
2023-08-23T02:26:49.981Z,20.06
2023-08-23T02:27:54.138Z,20.11
2023-08-23T02:28:58.220Z,20.12
2023-08-23T02:29:59.835Z,20.10
2023-08-23T02:31:04.370Z,20.06
2023-08-23T02:32:06.254Z,20.02
2023-08-23T02:33:10.181Z,19.97
2023-08-23T02:34:11.945Z,19.96
2023-08-23T02:35:13.989Z,19.96
2023-08-23T02:36:21.448Z,19.92
2023-08-23T02:37:23.203Z,19.89
2023-08-23T02:38:25.127Z,19.87
2023-08-23T02:39:31.788Z,19.72
2023-08-23T02:40:33.446Z,19.79
2023-08-23T02:41:35.504Z,19.77
2023-08-23T02:42:37.031Z,19.70
2023-08-23T02:43:39.339Z,19.75
2023-08-23T02:44:44.601Z,19.77
2023-08-23T02:45:46.225Z,19.75
2023-08-23T02:46:47.800Z,19.62
2023-08-23T02:47:50.171Z,19.71
2023-08-23T02:48:55.010Z,19.71
2023-08-23T02:49:57.233Z,19.73
2023-08-23T02:51:01.131Z,19.60
2023-08-23T02:52:02.894Z,19.70
2023-08-23T02:53:04.964Z,19.73
2023-08-23T02:54:06.800Z,19.72
2023-08-23T02:55:08.743Z,19.71
2023-08-23T02:56:10.413Z,19.72
2023-08-23T02:57:12.034Z,19.64
2023-08-23T02:58:14.024Z,19.74
2023-08-23T02:59:15.675Z,19.72
2023-08-23T03:00:17.566Z,19.60
2023-08-23T03:01:19.412Z,19.66
2023-08-23T03:02:21.254Z,19.68
2023-08-23T03:03:23.027Z,19.69
2023-08-23T03:04:24.746Z,19.67
2023-08-23T03:05:26.432Z,19.59
2023-08-23T03:06:28.170Z,19.67
2023-08-23T03:07:29.975Z,19.70
2023-08-23T03:08:31.548Z,19.62
2023-08-23T03:09:33.390Z,19.72
2023-08-23T03:10:37.642Z,19.73
2023-08-23T03:11:39.405Z,19.72
2023-08-23T03:12:41.628Z,19.72
2023-08-23T03:13:43.204Z,19.58
2023-08-23T03:14:44.881Z,19.67
2023-08-23T03:15:54.589Z,19.67
2023-08-23T03:16:56.352Z,19.66
2023-08-23T03:17:58.118Z,19.61
2023-08-23T03:19:02.648Z,19.65
2023-08-23T03:20:06.028Z,19.62
2023-08-23T03:21:09.116Z,19.61
2023-08-23T03:22:13.805Z,19.62
2023-08-23T03:23:20.666Z,19.63
2023-08-23T03:24:24.029Z,19.64
2023-08-23T03:25:26.400Z,19.67
2023-08-23T03:26:28.150Z,19.64
2023-08-23T03:27:32.235Z,19.67
2023-08-23T03:28:34.139Z,19.64
2023-08-23T03:29:39.602Z,19.64
2023-08-23T03:30:43.093Z,19.63
2023-08-23T03:31:47.211Z,19.60
2023-08-23T03:32:53.403Z,19.60
2023-08-23T03:33:56.410Z,19.58
2023-08-23T03:34:58.268Z,19.58
2023-08-23T03:36:00.041Z,19.49
2023-08-23T03:37:02.967Z,19.56
2023-08-23T03:38:04.983Z,19.58
2023-08-23T03:39:06.673Z,19.59
2023-08-23T03:40:08.317Z,19.45
2023-08-23T03:41:14.286Z,19.56
2023-08-23T03:42:15.992Z,19.52
2023-08-23T03:43:17.704Z,19.36
2023-08-23T03:44:20.819Z,19.46
2023-08-23T03:45:25.087Z,19.45
2023-08-23T03:46:31.145Z,19.41
2023-08-23T03:47:33.202Z,19.41
2023-08-23T03:48:35.295Z,19.42
2023-08-23T03:49:37.244Z,19.29
2023-08-23T03:50:39.654Z,19.38
2023-08-23T03:51:41.218Z,19.26
2023-08-23T03:52:43.073Z,19.35
2023-08-23T03:53:45.474Z,19.36
2023-08-23T03:54:47.519Z,19.21
2023-08-23T03:55:53.077Z,19.29
2023-08-23T03:56:54.810Z,19.30
2023-08-23T03:57:56.444Z,19.12
2023-08-23T03:58:59.495Z,19.22
2023-08-23T04:00:01.244Z,19.19
2023-08-23T04:01:02.856Z,19.06
2023-08-23T04:02:04.699Z,19.15
2023-08-23T04:03:06.809Z,19.15
2023-08-23T04:04:08.722Z,19.18
2023-08-23T04:05:13.075Z,19.15
2023-08-23T04:06:15.082Z,19.12
2023-08-23T04:07:16.788Z,19.04
2023-08-23T04:08:19.261Z,19.02
2023-08-23T04:09:20.982Z,19.14
2023-08-23T04:10:25.070Z,19.05
2023-08-23T04:11:26.719Z,19.14
2023-08-23T04:12:28.278Z,19.07
2023-08-23T04:13:30.639Z,19.13
2023-08-23T04:14:32.410Z,19.15
2023-08-23T04:15:37.268Z,19.17
2023-08-23T04:16:39.447Z,19.11
2023-08-23T04:17:41.175Z,19.08
2023-08-23T04:18:42.978Z,19.09
2023-08-23T04:19:44.527Z,18.98
2023-08-23T04:20:46.152Z,19.06
2023-08-23T04:21:48.505Z,19.08
2023-08-23T04:22:50.223Z,19.06
2023-08-23T04:23:54.521Z,18.95
2023-08-23T04:24:56.637Z,19.03
2023-08-23T04:25:58.325Z,19.08
2023-08-23T04:26:59.863Z,18.93
2023-08-23T04:28:01.812Z,19.00
2023-08-23T04:29:06.175Z,19.04
2023-08-23T04:30:11.199Z,18.93
2023-08-23T04:31:15.069Z,19.01
2023-08-23T04:32:28.712Z,18.99
2023-08-23T04:33:30.729Z,19.01
2023-08-23T04:34:35.133Z,18.99
2023-08-23T04:35:39.276Z,18.97
2023-08-23T04:36:40.960Z,18.99
2023-08-23T04:37:42.744Z,18.97
2023-08-23T04:38:44.920Z,18.92
2023-08-23T04:39:48.087Z,18.90
2023-08-23T04:40:49.916Z,18.90
2023-08-23T04:41:51.788Z,18.87
2023-08-23T04:42:53.885Z,18.89
2023-08-23T04:43:55.473Z,18.78
2023-08-23T04:44:57.326Z,18.90
2023-08-23T04:46:00.143Z,18.90
2023-08-23T04:47:02.045Z,18.93
2023-08-23T04:48:06.492Z,18.97
2023-08-23T04:49:08.615Z,18.97
2023-08-23T04:50:10.595Z,18.90
2023-08-23T04:51:15.330Z,18.98
2023-08-23T04:52:17.247Z,19.03
2023-08-23T04:53:19.448Z,19.03
2023-08-23T04:54:23.210Z,19.05
2023-08-23T04:55:25.481Z,19.00
2023-08-23T04:56:29.991Z,19.01
2023-08-23T04:57:31.694Z,19.01
2023-08-23T04:58:33.437Z,18.91
2023-08-23T04:59:35.839Z,18.98
2023-08-23T05:00:37.710Z,19.03
2023-08-23T05:01:41.865Z,19.00
2023-08-23T05:02:45.846Z,18.97
2023-08-23T05:03:49.777Z,18.97
2023-08-23T05:04:51.455Z,18.94
2023-08-23T05:05:58.534Z,18.95
2023-08-23T05:07:00.206Z,18.98
2023-08-23T05:08:05.574Z,19.00
2023-08-23T05:09:07.705Z,19.04
2023-08-23T05:10:09.558Z,18.92
2023-08-23T05:11:13.533Z,19.03
2023-08-23T05:12:15.907Z,19.09
2023-08-23T05:13:19.844Z,19.12
2023-08-23T05:14:21.579Z,19.15
2023-08-23T05:15:23.934Z,19.22
2023-08-23T05:16:25.764Z,19.25
2023-08-23T05:17:27.536Z,19.25
2023-08-23T05:18:29.369Z,19.29
2023-08-23T05:19:30.976Z,19.14
2023-08-23T05:20:32.767Z,19.29
2023-08-23T05:21:35.085Z,19.39
2023-08-23T05:22:36.908Z,19.39
2023-08-23T05:23:38.762Z,19.39
2023-08-23T05:24:43.118Z,19.45
2023-08-23T05:25:45.963Z,19.46
2023-08-23T05:26:47.594Z,19.44
2023-08-23T05:27:49.710Z,19.51
2023-08-23T05:28:54.027Z,19.60
2023-08-23T05:30:00.652Z,19.62
2023-08-23T05:31:04.162Z,19.64
2023-08-23T05:32:06.303Z,19.70
2023-08-23T05:33:08.030Z,19.76
2023-08-23T05:34:09.938Z,19.76
2023-08-23T05:35:11.991Z,19.78
2023-08-23T05:36:15.833Z,19.83
2023-08-23T05:37:20.508Z,19.88
2023-08-23T05:38:24.391Z,19.93
2023-08-23T05:39:26.878Z,19.95
2023-08-23T05:40:28.553Z,19.91
2023-08-23T05:41:30.406Z,20.01
2023-08-23T05:42:34.665Z,20.06
2023-08-23T05:43:36.674Z,20.13
2023-08-23T05:44:38.265Z,20.06
2023-08-23T05:45:42.135Z,20.17
2023-08-23T05:46:44.194Z,20.24
2023-08-23T05:47:47.383Z,20.25
2023-08-23T05:48:50.441Z,20.27
2023-08-23T05:49:54.550Z,20.29
2023-08-23T05:50:56.475Z,20.36
2023-08-23T05:51:58.201Z,20.41
2023-08-23T05:53:00.225Z,20.43
2023-08-23T05:54:01.869Z,20.43
2023-08-23T05:55:03.641Z,20.37
2023-08-23T05:56:06.609Z,20.48
2023-08-23T05:57:08.944Z,20.51
2023-08-23T05:58:10.648Z,20.54
2023-08-23T05:59:12.453Z,20.56
2023-08-23T06:00:15.297Z,20.51
2023-08-23T06:01:18.562Z,20.60
2023-08-23T06:02:20.380Z,20.68
2023-08-23T06:03:22.319Z,20.62
2023-08-23T06:04:26.306Z,20.73
2023-08-23T06:05:30.487Z,20.77
2023-08-23T06:06:32.263Z,20.81
2023-08-23T06:07:34.321Z,20.77
2023-08-23T06:08:38.312Z,20.88
2023-08-23T06:09:39.973Z,20.92
2023-08-23T06:10:41.699Z,20.92
2023-08-23T06:11:43.778Z,20.96
2023-08-23T06:12:45.455Z,21.02
2023-08-23T06:13:51.868Z,21.02
2023-08-23T06:14:53.721Z,21.07
2023-08-23T06:15:55.454Z,21.10
2023-08-23T06:16:57.215Z,21.05
2023-08-23T06:18:01.618Z,21.14
2023-08-23T06:19:04.572Z,21.17
2023-08-23T06:20:07.732Z,21.21
2023-08-23T06:21:09.562Z,21.26
2023-08-23T06:22:11.213Z,21.31
2023-08-23T06:23:13.179Z,21.30
2023-08-23T06:24:15.191Z,21.39
2023-08-23T06:25:16.828Z,21.44
2023-08-23T06:26:18.388Z,21.41
2023-08-23T06:27:20.380Z,21.50
2023-08-23T06:28:22.363Z,21.57
2023-08-23T06:29:24.112Z,21.58
2023-08-23T06:30:25.826Z,21.61
2023-08-23T06:31:27.632Z,21.67
2023-08-23T06:32:32.531Z,21.72
2023-08-23T06:33:34.237Z,21.75
2023-08-23T06:34:36.587Z,21.77
2023-08-23T06:35:40.653Z,21.80
2023-08-23T06:36:42.440Z,21.83
2023-08-23T06:37:44.677Z,21.87
2023-08-23T06:38:46.565Z,21.94
2023-08-23T06:39:50.673Z,21.97
2023-08-23T06:40:54.743Z,22.00
2023-08-23T06:41:58.733Z,22.04
2023-08-23T06:43:03.020Z,22.07
2023-08-23T06:44:08.475Z,22.12
2023-08-23T06:45:11.013Z,22.17
2023-08-23T06:46:12.857Z,22.22
2023-08-23T06:47:14.560Z,22.26
2023-08-23T06:48:16.651Z,22.28
2023-08-23T06:49:18.485Z,22.31
2023-08-23T06:50:20.408Z,22.36
2023-08-23T06:51:22.846Z,22.40
2023-08-23T06:52:27.671Z,22.42
2023-08-23T06:53:29.447Z,22.45
2023-08-23T06:54:31.616Z,22.50
2023-08-23T06:55:33.806Z,22.52
2023-08-23T06:56:36.371Z,22.57
2023-08-23T06:57:41.006Z,22.58
2023-08-23T06:58:44.908Z,22.66
2023-08-23T06:59:46.619Z,22.69
2023-08-23T07:00:48.333Z,22.73
2023-08-23T07:01:50.389Z,22.79
2023-08-23T07:02:52.387Z,22.83
2023-08-23T07:03:54.262Z,22.88
2023-08-23T07:04:56.336Z,22.94
2023-08-23T07:06:06.087Z,22.94
2023-08-23T07:07:09.880Z,22.97
2023-08-23T07:08:11.843Z,23.03
2023-08-23T07:09:16.651Z,23.05
2023-08-23T07:10:28.224Z,23.07
2023-08-23T07:11:31.053Z,23.12
2023-08-23T07:12:32.878Z,23.16
2023-08-23T07:13:35.673Z,23.17
2023-08-23T07:14:37.434Z,23.13
2023-08-23T07:15:41.713Z,23.17
2023-08-23T07:16:43.550Z,23.17
2023-08-23T07:17:45.602Z,23.19
2023-08-23T07:18:47.587Z,23.23
2023-08-23T07:19:49.342Z,23.26
2023-08-23T07:20:51.155Z,23.30
2023-08-23T07:21:52.866Z,23.35
2023-08-23T07:22:57.027Z,23.40
2023-08-23T07:23:58.893Z,23.46
2023-08-23T07:25:03.262Z,23.48
2023-08-23T07:26:05.555Z,23.48
2023-08-23T07:27:07.424Z,23.50
2023-08-23T07:28:09.124Z,23.48
2023-08-23T07:29:13.071Z,23.51
2023-08-23T07:30:15.014Z,23.54
2023-08-23T07:31:17.718Z,23.60
2023-08-23T07:32:21.805Z,23.61
2023-08-23T07:33:25.000Z,23.61
2023-08-23T07:34:26.974Z,23.69
2023-08-23T07:35:28.775Z,23.71
2023-08-23T07:36:32.842Z,23.79
2023-08-23T07:37:34.594Z,23.84
2023-08-23T07:38:41.817Z,23.87
2023-08-23T07:39:43.492Z,23.91
2023-08-23T07:40:45.180Z,23.92
2023-08-23T07:41:46.821Z,23.99
2023-08-23T07:42:50.931Z,23.93
2023-08-23T07:43:54.656Z,24.00
2023-08-23T07:44:56.448Z,24.02
2023-08-23T07:46:00.007Z,24.07
2023-08-23T07:47:02.190Z,24.00
2023-08-23T07:48:04.298Z,24.08
2023-08-23T07:49:08.256Z,24.13
2023-08-23T07:50:12.457Z,24.22
2023-08-23T07:51:14.174Z,24.24
2023-08-23T07:52:15.977Z,24.30
2023-08-23T07:53:18.095Z,24.37
2023-08-23T07:54:19.755Z,24.40
2023-08-23T07:55:21.464Z,24.41
2023-08-23T07:56:23.145Z,24.41
2023-08-23T07:57:24.990Z,24.41
2023-08-23T07:58:26.918Z,24.46
2023-08-23T07:59:28.669Z,24.48
2023-08-23T08:00:32.816Z,24.53
2023-08-23T08:01:36.916Z,24.54
2023-08-23T08:02:41.616Z,24.56
2023-08-23T08:03:49.047Z,24.56
2023-08-23T08:04:53.152Z,24.56
2023-08-23T08:05:54.840Z,24.56
2023-08-23T08:06:57.596Z,24.62
2023-08-23T08:08:08.254Z,24.64
2023-08-23T08:09:11.268Z,24.66
2023-08-23T08:10:13.072Z,24.69
2023-08-23T08:11:16.224Z,24.72
2023-08-23T08:12:17.946Z,24.76
2023-08-23T08:13:19.664Z,24.80
2023-08-23T08:14:21.387Z,24.80
2023-08-23T08:15:26.050Z,24.81
2023-08-23T08:16:27.776Z,24.85
2023-08-23T08:17:29.592Z,24.86
2023-08-23T08:18:31.602Z,24.90
2023-08-23T08:19:35.390Z,24.95
2023-08-23T08:20:37.287Z,25.04
2023-08-23T08:21:42.062Z,25.07
2023-08-23T08:22:43.822Z,25.11
2023-08-23T08:23:47.666Z,25.15
2023-08-23T08:24:49.543Z,25.20
2023-08-23T08:25:51.989Z,25.22
2023-08-23T08:26:53.710Z,25.21
2023-08-23T08:27:55.415Z,25.25
2023-08-23T08:28:57.157Z,25.29
2023-08-23T08:29:59.673Z,25.33
2023-08-23T08:31:01.497Z,25.36
2023-08-23T08:32:03.188Z,25.37
2023-08-23T08:33:07.812Z,25.41
2023-08-23T08:34:10.134Z,25.47
2023-08-23T08:35:11.876Z,25.49
2023-08-23T08:36:16.140Z,25.51
2023-08-23T08:37:22.932Z,25.49
2023-08-23T08:38:24.770Z,25.55
2023-08-23T08:39:26.584Z,25.53
2023-08-23T08:40:28.326Z,25.55
2023-08-23T08:41:30.147Z,25.59
2023-08-23T08:42:32.915Z,25.62
2023-08-23T08:43:35.233Z,25.65
2023-08-23T08:44:37.270Z,25.64
2023-08-23T08:45:39.178Z,25.70
2023-08-23T08:46:40.889Z,25.71
2023-08-23T08:47:43.337Z,25.72
2023-08-23T08:48:46.276Z,25.75
2023-08-23T08:49:48.059Z,25.77
2023-08-23T08:50:50.374Z,25.68
2023-08-23T08:52:00.927Z,25.80
2023-08-23T08:53:07.482Z,25.81
2023-08-23T08:54:10.897Z,25.86
2023-08-23T08:55:13.302Z,25.96
2023-08-23T08:56:16.281Z,26.04
2023-08-23T08:57:18.413Z,26.03
2023-08-23T08:58:23.020Z,26.12
2023-08-23T08:59:27.752Z,26.20
2023-08-23T09:00:31.656Z,26.20
2023-08-23T09:01:36.552Z,26.30
2023-08-23T09:02:39.365Z,26.33
2023-08-23T09:03:42.428Z,26.34
2023-08-23T09:04:49.294Z,26.41
2023-08-23T09:05:52.593Z,26.44
2023-08-23T09:06:54.495Z,26.47
2023-08-23T09:07:57.847Z,26.46
2023-08-23T09:09:01.934Z,26.50
2023-08-23T09:10:04.765Z,26.53
2023-08-23T09:11:06.509Z,26.59
2023-08-23T09:12:13.154Z,26.62
2023-08-23T09:13:14.969Z,26.70
2023-08-23T09:14:22.328Z,26.77
2023-08-23T09:15:26.897Z,26.83
2023-08-23T09:16:28.795Z,26.84
2023-08-23T09:17:34.684Z,26.91
2023-08-23T09:18:36.465Z,26.95
2023-08-23T09:19:41.685Z,27.00
2023-08-23T09:20:43.908Z,27.00
2023-08-23T09:21:46.915Z,27.08
2023-08-23T09:22:53.293Z,27.11
2023-08-23T09:23:55.956Z,26.99
2023-08-23T09:24:57.610Z,27.08
2023-08-23T09:26:01.633Z,27.14
2023-08-23T09:27:03.514Z,27.19
2023-08-23T09:28:13.363Z,27.28
2023-08-23T09:29:15.038Z,27.31
2023-08-23T09:30:16.904Z,27.38
2023-08-23T09:31:18.675Z,27.42
2023-08-23T09:32:20.339Z,27.44
2023-08-23T09:33:22.670Z,27.50
2023-08-23T09:34:26.976Z,27.51
2023-08-23T09:35:30.668Z,27.55
2023-08-23T09:36:41.193Z,27.56
2023-08-23T09:37:50.676Z,27.59
2023-08-23T09:38:52.574Z,27.65
2023-08-23T09:39:54.535Z,27.66
2023-08-23T09:40:57.728Z,27.71
2023-08-23T09:42:09.792Z,27.73
2023-08-23T09:43:15.720Z,27.76
2023-08-23T09:44:19.612Z,27.78
2023-08-23T09:45:23.384Z,27.81
2023-08-23T09:46:28.978Z,27.82
2023-08-23T09:47:35.909Z,27.84
2023-08-23T09:48:42.277Z,27.84
2023-08-23T09:49:45.760Z,27.88
2023-08-23T09:50:54.004Z,27.94
2023-08-23T09:51:56.307Z,28.01
2023-08-23T09:53:05.614Z,28.02
2023-08-23T09:54:10.254Z,28.04
2023-08-23T09:55:15.866Z,28.07
2023-08-23T09:56:17.855Z,28.11
2023-08-23T09:57:22.275Z,28.13
2023-08-23T09:58:24.172Z,28.13
2023-08-23T09:59:26.290Z,28.12
2023-08-23T10:00:29.016Z,28.20
2023-08-23T10:01:33.964Z,28.22
2023-08-23T10:02:37.850Z,28.19
2023-08-23T10:03:40.842Z,28.24
2023-08-23T10:04:43.375Z,28.32
2023-08-23T10:05:46.644Z,28.33
2023-08-23T10:06:50.686Z,28.40
2023-08-23T10:07:55.826Z,28.47
2023-08-23T10:08:57.912Z,28.55
2023-08-23T10:09:59.808Z,28.62
2023-08-23T10:11:01.482Z,28.62
2023-08-23T10:12:05.457Z,28.62
2023-08-23T10:13:07.666Z,28.68
2023-08-23T10:14:11.629Z,28.66
2023-08-23T10:15:16.240Z,28.61
2023-08-23T10:16:20.292Z,28.52
2023-08-23T10:17:26.132Z,28.48
2023-08-23T10:18:31.648Z,28.60
2023-08-23T10:19:33.725Z,28.67
2023-08-23T10:20:36.694Z,28.67
2023-08-23T10:21:39.000Z,28.76
2023-08-23T10:22:41.747Z,28.83
2023-08-23T10:23:44.036Z,28.85
2023-08-23T10:24:49.537Z,28.88
2023-08-23T10:25:51.243Z,28.96
2023-08-23T10:26:54.002Z,28.99
2023-08-23T10:27:57.070Z,29.00
2023-08-23T10:29:01.825Z,29.04
2023-08-23T10:30:20.551Z,29.02
2023-08-23T10:31:26.584Z,29.02
2023-08-23T10:32:37.489Z,28.99
2023-08-23T10:33:41.535Z,28.96
2023-08-23T10:34:43.513Z,29.01
2023-08-23T10:35:47.190Z,29.01
2023-08-23T10:36:48.905Z,29.02
2023-08-23T10:37:54.018Z,29.05
2023-08-23T10:38:57.330Z,29.07
2023-08-23T10:40:01.425Z,29.07
2023-08-23T10:41:03.312Z,29.10
2023-08-23T10:42:05.884Z,29.13
2023-08-23T10:43:15.346Z,29.14
2023-08-23T10:44:17.273Z,29.18
2023-08-23T10:45:19.204Z,29.19
2023-08-23T10:46:23.705Z,29.23
2023-08-23T10:47:26.425Z,29.13
2023-08-23T10:48:28.385Z,29.21
2023-08-23T10:49:30.198Z,29.29
2023-08-23T10:50:34.680Z,29.31
2023-08-23T10:51:36.401Z,29.34
2023-08-23T10:52:39.008Z,29.35
2023-08-23T10:53:42.255Z,29.36
2023-08-23T10:54:44.090Z,29.43
2023-08-23T10:55:46.162Z,29.39
2023-08-23T10:56:48.535Z,29.49
2023-08-23T10:57:50.566Z,29.50
2023-08-23T10:58:52.477Z,29.57
2023-08-23T10:59:54.240Z,29.53
2023-08-23T11:00:56.833Z,29.58
2023-08-23T11:01:58.767Z,29.62
2023-08-23T11:03:00.681Z,29.67
2023-08-23T11:04:06.856Z,29.73
2023-08-23T11:05:09.697Z,29.72
2023-08-23T11:06:14.521Z,29.74
2023-08-23T11:07:18.623Z,29.77
2023-08-23T11:08:20.398Z,29.82
2023-08-23T11:09:25.033Z,29.92
2023-08-23T11:10:26.929Z,29.94
2023-08-23T11:11:31.114Z,30.00
2023-08-23T11:12:32.821Z,30.01
2023-08-23T11:13:34.493Z,30.03
2023-08-23T11:14:36.318Z,30.04
2023-08-23T11:15:38.352Z,30.04
2023-08-23T11:16:43.297Z,30.09
2023-08-23T11:17:45.039Z,30.10
2023-08-23T11:18:46.891Z,30.12
2023-08-23T11:19:51.071Z,30.13
2023-08-23T11:20:54.985Z,30.18
2023-08-23T11:21:57.712Z,30.20
2023-08-23T11:22:59.434Z,30.22
2023-08-23T11:24:07.162Z,30.21
2023-08-23T11:25:09.245Z,30.25
2023-08-23T11:26:10.991Z,30.27
2023-08-23T11:27:15.281Z,30.30
2023-08-23T11:28:20.811Z,30.25
2023-08-23T11:29:23.667Z,30.30
2023-08-23T11:30:25.735Z,30.29
2023-08-23T11:31:28.666Z,30.32
2023-08-23T11:32:31.839Z,30.32
2023-08-23T11:33:34.612Z,30.22
2023-08-23T11:34:38.390Z,30.35
2023-08-23T11:35:40.159Z,30.43
2023-08-23T11:36:42.652Z,30.41
2023-08-23T11:37:44.462Z,30.49
2023-08-23T11:38:50.494Z,30.49
2023-08-23T11:40:06.145Z,30.51
2023-08-23T11:41:09.957Z,30.60
2023-08-23T11:42:11.747Z,30.62
2023-08-23T11:43:22.587Z,30.60
2023-08-23T11:44:28.696Z,30.64
2023-08-23T11:45:38.177Z,30.62
2023-08-23T11:46:39.976Z,30.68
2023-08-23T11:47:42.325Z,30.70
2023-08-23T11:48:44.038Z,30.73
2023-08-23T11:49:49.687Z,30.74
2023-08-23T11:50:58.819Z,30.76
2023-08-23T11:52:00.492Z,30.84
2023-08-23T11:53:08.185Z,30.85
2023-08-23T11:54:12.495Z,30.90
2023-08-23T11:55:21.591Z,30.87
2023-08-23T11:56:23.302Z,30.92
2023-08-23T11:57:25.600Z,30.95
2023-08-23T11:58:27.271Z,31.03
2023-08-23T11:59:31.222Z,31.09
2023-08-23T12:00:34.612Z,31.13
2023-08-23T12:01:45.045Z,31.14
2023-08-23T12:02:47.037Z,31.20
2023-08-23T12:03:48.840Z,31.22
2023-08-23T12:04:50.525Z,31.23
2023-08-23T12:05:52.274Z,31.26
2023-08-23T12:06:54.231Z,31.27
2023-08-23T12:07:55.975Z,31.31
2023-08-23T12:08:57.641Z,31.33
2023-08-23T12:09:59.609Z,31.36
2023-08-23T12:11:03.795Z,31.35
2023-08-23T12:12:05.818Z,31.40
2023-08-23T12:13:10.059Z,31.42
2023-08-23T12:14:11.823Z,31.45
2023-08-23T12:15:13.753Z,31.34
2023-08-23T12:16:17.950Z,31.40
2023-08-23T12:17:19.709Z,31.46
2023-08-23T12:18:23.803Z,31.50
2023-08-23T12:19:31.680Z,31.55
2023-08-23T12:20:34.555Z,31.55
2023-08-23T12:21:36.463Z,31.56
2023-08-23T12:22:44.893Z,31.63
2023-08-23T12:23:46.576Z,31.63
2023-08-23T12:24:50.887Z,31.63
2023-08-23T12:25:52.644Z,31.67
2023-08-23T12:26:54.334Z,31.75
2023-08-23T12:27:56.093Z,31.81
2023-08-23T12:28:58.036Z,31.73
2023-08-23T12:29:59.881Z,31.69
2023-08-23T12:31:01.510Z,31.79
2023-08-23T12:32:03.337Z,31.77
2023-08-23T12:33:05.297Z,31.79
2023-08-23T12:34:09.256Z,31.84
2023-08-23T12:35:11.046Z,31.87
2023-08-23T12:36:17.182Z,31.94
2023-08-23T12:37:19.212Z,31.95
2023-08-23T12:38:20.898Z,31.94
2023-08-23T12:39:23.201Z,31.95
2023-08-23T12:40:25.197Z,31.92
2023-08-23T12:41:28.692Z,31.98
2023-08-23T12:42:30.403Z,31.95
2023-08-23T12:43:35.002Z,31.97
2023-08-23T12:44:36.907Z,31.89
2023-08-23T12:45:38.555Z,31.95
2023-08-23T12:46:40.198Z,31.99
2023-08-23T12:47:41.976Z,32.03
2023-08-23T12:48:43.703Z,32.07
2023-08-23T12:49:45.382Z,32.06
2023-08-23T12:50:49.515Z,32.09
2023-08-23T12:51:51.610Z,32.08
2023-08-23T12:52:53.338Z,32.04
2023-08-23T12:53:57.585Z,32.04
2023-08-23T12:54:59.589Z,32.07
2023-08-23T12:56:01.255Z,32.12
2023-08-23T12:57:03.176Z,32.08
2023-08-23T12:58:05.106Z,32.10
2023-08-23T12:59:06.854Z,32.09
2023-08-23T13:00:27.176Z,32.11
2023-08-23T13:01:31.788Z,32.19
2023-08-23T13:02:33.943Z,32.20
2023-08-23T13:03:35.749Z,32.23
2023-08-23T13:04:37.522Z,32.21
2023-08-23T13:05:39.276Z,32.22
2023-08-23T13:06:41.015Z,32.23
2023-08-23T13:07:43.161Z,32.25
2023-08-23T13:08:47.518Z,32.30
2023-08-23T13:09:50.737Z,32.30
2023-08-23T13:10:54.876Z,32.33
2023-08-23T13:11:56.561Z,32.38
2023-08-23T13:12:58.693Z,32.35
2023-08-23T13:14:00.450Z,32.34
2023-08-23T13:15:02.118Z,32.34
2023-08-23T13:16:06.347Z,32.40
2023-08-23T13:17:08.168Z,32.41
2023-08-23T13:18:09.874Z,32.39
2023-08-23T13:19:11.694Z,32.37
2023-08-23T13:20:13.793Z,32.35
2023-08-23T13:21:15.525Z,32.41
2023-08-23T13:22:17.335Z,32.40
2023-08-23T13:23:19.748Z,32.37
2023-08-23T13:24:22.794Z,32.40
2023-08-23T13:25:24.736Z,32.43
2023-08-23T13:26:27.385Z,32.48
2023-08-23T13:27:29.056Z,32.52
2023-08-23T13:28:30.856Z,32.54
2023-08-23T13:29:32.891Z,32.52
2023-08-23T13:30:34.536Z,32.59
2023-08-23T13:31:36.313Z,32.54
2023-08-23T13:32:38.188Z,32.56
2023-08-23T13:33:39.907Z,32.60
2023-08-23T13:34:41.903Z,32.59